Bormujos, Spain
Current Conditions -  °F | °C
As of 4:30 PM on Friday 28 Nov 2014 (Local Time) from LEZL Reporting Station
Scattered Clouds Scattered Clouds  
Wind Chill: 61°   Ceiling: Unl
Heat Index: 61°   Visibility: 6mi
Dew Point: 52°   Wind: 8mph
Humidity: 72%   Direction: 170°S
Pressure: 29.09"   Gusts: NA
Location:  37.37°N, 6.07°W
Report Text: LEZL 281530Z 17007KT 9999 FEW030 SCT040CB 16/11 Q0985 NOSIG
Loading
Personal Weather Stations






























Interactive Weather Map New forecast layout! Learn more

10-Day Weather Forecast

Advertisements
Track Severe Weather on mobile